sensor_id;sensor_type;location;lat;lon;timestamp;pressure;altitude;pressure_sealevel;temperature;humidity
65557;BME280;52200;53.490;14.376;2024-01-15T00:00:41;98841.25;;;1.10;96.24
65557;BME280;52200;53.490;14.376;2024-01-15T00:03:06;98833.66;;;1.13;96.04
65557;BME280;52200;53.490;14.376;2024-01-15T00:05:32;98825.69;;;1.40;95.88
65557;BME280;52200;53.490;14.376;2024-01-15T00:07:57;98822.53;;;1.28;95.08
65557;BME280;52200;53.490;14.376;2024-01-15T00:10:23;98807.63;;;1.25;94.55
65557;BME280;52200;53.490;14.376;2024-01-15T00:12:49;98809.13;;;1.33;95.26
65557;BME280;52200;53.490;14.376;2024-01-15T00:15:15;98800.88;;;1.27;94.35
65557;BME280;52200;53.490;14.376;2024-01-15T00:17:40;98794.13;;;1.33;95.45
65557;BME280;52200;53.490;14.376;2024-01-15T00:20:06;98790.81;;;1.31;94.66
65557;BME280;52200;53.490;14.376;2024-01-15T00:22:32;98785.19;;;1.21;95.11
65557;BME280;52200;53.490;14.376;2024-01-15T00:24:58;98780.94;;;1.24;95.15
65557;BME280;52200;53.490;14.376;2024-01-15T00:27:23;98776.13;;;1.17;96.10
65557;BME280;52200;53.490;14.376;2024-01-15T00:29:49;98772.16;;;1.05;95.87
65557;BME280;52200;53.490;14.376;2024-01-15T00:32:16;98774.94;;;0.91;97.04
65557;BME280;52200;53.490;14.376;2024-01-15T00:34:42;98766.41;;;1.01;96.56
65557;BME280;52200;53.490;14.376;2024-01-15T00:37:07;98769.78;;;0.99;97.28
65557;BME280;52200;53.490;14.376;2024-01-15T00:39:33;98761.59;;;0.90;97.64
65557;BME280;52200;53.490;14.376;2024-01-15T00:41:58;98755.16;;;0.80;97.76
65557;BME280;52200;53.490;14.376;2024-01-15T00:44:24;98750.97;;;0.80;97.81
65557;BME280;52200;53.490;14.376;2024-01-15T00:46:49;98756.78;;;0.81;98.32
65557;BME280;52200;53.490;14.376;2024-01-15T00:49:15;98737.72;;;0.75;98.26
65557;BME280;52200;53.490;14.376;2024-01-15T00:51:41;98742.72;;;0.77;98.87
65557;BME280;52200;53.490;14.376;2024-01-15T00:54:07;98740.91;;;0.84;99.32
65557;BME280;52200;53.490;14.376;2024-01-15T00:56:32;98744.31;;;0.81;99.17
65557;BME280;52200;53.490;14.376;2024-01-15T00:58:58;98725.06;;;0.85;99.12
65557;BME280;52200;53.490;14.376;2024-01-15T01:01:23;98743.50;;;0.79;98.89
65557;BME280;52200;53.490;14.376;2024-01-15T01:03:49;98736.28;;;0.65;99.46
65557;BME280;52200;53.490;14.376;2024-01-15T01:06:14;98732.88;;;0.68;100.00
65557;BME280;52200;53.490;14.376;2024-01-15T01:08:39;98738.72;;;0.67;100.00
65557;BME280;52200;53.490;14.376;2024-01-15T01:11:05;98735.50;;;0.61;100.00
65557;BME280;52200;53.490;14.376;2024-01-15T01:13:32;98743.56;;;0.76;99.98
65557;BME280;52200;53.490;14.376;2024-01-15T01:15:58;98735.09;;;0.83;99.80
65557;BME280;52200;53.490;14.376;2024-01-15T01:18:23;98727.88;;;0.68;99.35
65557;BME280;52200;53.490;14.376;2024-01-15T01:20:49;98719.47;;;0.72;99.50
65557;BME280;52200;53.490;14.376;2024-01-15T01:23:14;98720.91;;;0.84;98.41
65557;BME280;52200;53.490;14.376;2024-01-15T01:25:39;98717.72;;;0.77;97.66
65557;BME280;52200;53.490;14.376;2024-01-15T01:28:05;98716.63;;;0.90;97.54
65557;BME280;52200;53.490;14.376;2024-01-15T01:30:30;98712.88;;;0.69;97.54
65557;BME280;52200;53.490;14.376;2024-01-15T01:32:56;98718.50;;;0.79;97.57
65557;BME280;52200;53.490;14.376;2024-01-15T01:35:22;98716.00;;;0.80;97.16
65557;BME280;52200;53.490;14.376;2024-01-15T01:37:47;98723.47;;;0.82;97.70
65557;BME280;52200;53.490;14.376;2024-01-15T01:40:13;98719.28;;;0.83;97.39
65557;BME280;52200;53.490;14.376;2024-01-15T01:42:38;98721.38;;;1.03;96.54
65557;BME280;52200;53.490;14.376;2024-01-15T01:45:04;98726.63;;;0.90;95.42
65557;BME280;52200;53.490;14.376;2024-01-15T01:47:30;98716.97;;;0.72;95.68
65557;BME280;52200;53.490;14.376;2024-01-15T01:49:56;98721.41;;;0.59;94.60
65557;BME280;52200;53.490;14.376;2024-01-15T01:52:21;98699.22;;;0.42;95.66
65557;BME280;52200;53.490;14.376;2024-01-15T01:54:47;98700.97;;;0.37;95.35
65557;BME280;52200;53.490;14.376;2024-01-15T01:57:14;98696.09;;;0.30;94.50
65557;BME280;52200;53.490;14.376;2024-01-15T01:59:40;98687.06;;;0.25;95.01
65557;BME280;52200;53.490;14.376;2024-01-15T02:02:06;98685.63;;;0.11;95.04
65557;BME280;52200;53.490;14.376;2024-01-15T02:04:32;98684.13;;;0.01;94.90
65557;BME280;52200;53.490;14.376;2024-01-15T02:06:59;98670.03;;;-0.02;95.55
65557;BME280;52200;53.490;14.376;2024-01-15T02:09:25;98668.50;;;-0.10;95.35
65557;BME280;52200;53.490;14.376;2024-01-15T02:11:50;98669.34;;;-0.10;95.16
65557;BME280;52200;53.490;14.376;2024-01-15T02:14:16;98651.84;;;-0.08;95.00
65557;BME280;52200;53.490;14.376;2024-01-15T02:16:42;98661.97;;;-0.16;94.64
65557;BME280;52200;53.490;14.376;2024-01-15T02:19:14;98655.00;;;0.02;94.23
65557;BME280;52200;53.490;14.376;2024-01-15T02:21:40;98654.22;;;-0.01;93.44
65557;BME280;52200;53.490;14.376;2024-01-15T02:24:05;98646.81;;;-0.07;93.88
65557;BME280;52200;53.490;14.376;2024-01-15T02:26:31;98647.63;;;-0.06;93.00
65557;BME280;52200;53.490;14.376;2024-01-15T02:29:01;98641.13;;;-0.13;93.30
65557;BME280;52200;53.490;14.376;2024-01-15T02:31:27;98640.91;;;-0.03;93.24
65557;BME280;52200;53.490;14.376;2024-01-15T02:33:52;98635.81;;;0.04;92.60
65557;BME280;52200;53.490;14.376;2024-01-15T02:36:17;98637.41;;;0.09;92.86
65557;BME280;52200;53.490;14.376;2024-01-15T02:38:43;98622.22;;;0.20;92.44
65557;BME280;52200;53.490;14.376;2024-01-15T02:41:08;98628.16;;;0.14;91.32
65557;BME280;52200;53.490;14.376;2024-01-15T02:43:34;98629.09;;;0.09;91.93
65557;BME280;52200;53.490;14.376;2024-01-15T02:45:59;98631.41;;;0.18;92.39
65557;BME280;52200;53.490;14.376;2024-01-15T02:48:25;98618.13;;;0.16;91.87
65557;BME280;52200;53.490;14.376;2024-01-15T02:50:50;98623.22;;;0.10;91.74
65557;BME280;52200;53.490;14.376;2024-01-15T02:53:15;98623.31;;;0.07;92.46
65557;BME280;52200;53.490;14.376;2024-01-15T02:55:41;98600.91;;;0.02;92.38
65557;BME280;52200;53.490;14.376;2024-01-15T02:58:07;98609.13;;;0.09;91.40
65557;BME280;52200;53.490;14.376;2024-01-15T03:00:32;98604.38;;;-0.05;92.24
65557;BME280;52200;53.490;14.376;2024-01-15T03:02:58;98591.88;;;-0.04;91.42
65557;BME280;52200;53.490;14.376;2024-01-15T03:05:23;98605.13;;;-0.02;91.21
65557;BME280;52200;53.490;14.376;2024-01-15T03:07:49;98593.63;;;-0.09;91.82
65557;BME280;52200;53.490;14.376;2024-01-15T03:10:14;98581.91;;;-0.04;91.17
65557;BME280;52200;53.490;14.376;2024-01-15T03:12:40;98594.47;;;-0.08;91.76
65557;BME280;52200;53.490;14.376;2024-01-15T03:15:05;98586.91;;;-0.04;91.91
65557;BME280;52200;53.490;14.376;2024-01-15T03:17:31;98586.94;;;-0.07;91.69
65557;BME280;52200;53.490;14.376;2024-01-15T03:19:56;98588.34;;;0.07;91.32
65557;BME280;52200;53.490;14.376;2024-01-15T03:22:22;98579.75;;;0.22;91.35
65557;BME280;52200;53.490;14.376;2024-01-15T03:24:47;98577.34;;;0.19;90.33
65557;BME280;52200;53.490;14.376;2024-01-15T03:27:13;98579.59;;;0.29;90.93
65557;BME280;52200;53.490;14.376;2024-01-15T03:29:39;98586.25;;;0.30;90.65
65557;BME280;52200;53.490;14.376;2024-01-15T03:32:05;98566.91;;;0.40;89.84
65557;BME280;52200;53.490;14.376;2024-01-15T03:34:30;98561.84;;;0.43;89.72
65557;BME280;52200;53.490;14.376;2024-01-15T03:36:56;98558.25;;;0.55;89.38
65557;BME280;52200;53.490;14.376;2024-01-15T03:39:21;98554.19;;;0.51;89.26
65557;BME280;52200;53.490;14.376;2024-01-15T03:41:47;98550.09;;;0.47;89.43
65557;BME280;52200;53.490;14.376;2024-01-15T03:44:12;98547.47;;;0.53;89.10
65557;BME280;52200;53.490;14.376;2024-01-15T03:46:38;98545.72;;;0.57;89.78
65557;BME280;52200;53.490;14.376;2024-01-15T03:49:03;98538.25;;;0.57;89.12
65557;BME280;52200;53.490;14.376;2024-01-15T03:51:28;98534.03;;;0.59;89.52
65557;BME280;52200;53.490;14.376;2024-01-15T03:53:54;98535.66;;;0.61;89.55
65557;BME280;52200;53.490;14.376;2024-01-15T03:56:19;98531.63;;;0.54;90.58
65557;BME280;52200;53.490;14.376;2024-01-15T03:58:45;98528.38;;;0.52;91.20
65557;BME280;52200;53.490;14.376;2024-01-15T04:01:10;98519.09;;;0.57;91.23
65557;BME280;52200;53.490;14.376;2024-01-15T04:03:36;98512.44;;;0.56;91.98
65557;BME280;52200;53.490;14.376;2024-01-15T04:06:02;98520.03;;;0.52;91.68
65557;BME280;52200;53.490;14.376;2024-01-15T04:08:28;98521.91;;;0.42;91.96
65557;BME280;52200;53.490;14.376;2024-01-15T04:10:53;98513.47;;;0.47;92.14
65557;BME280;52200;53.490;14.376;2024-01-15T04:13:20;98516.72;;;0.51;91.93
65557;BME280;52200;53.490;14.376;2024-01-15T04:15:45;98512.59;;;0.50;91.69
65557;BME280;52200;53.490;14.376;2024-01-15T04:18:11;98509.16;;;0.56;91.25
65557;BME280;52200;53.490;14.376;2024-01-15T04:20:36;98495.81;;;0.55;90.80
65557;BME280;52200;53.490;14.376;2024-01-15T04:23:02;98502.38;;;0.59;90.34
65557;BME280;52200;53.490;14.376;2024-01-15T04:25:27;98501.63;;;0.57;90.17
65557;BME280;52200;53.490;14.376;2024-01-15T04:27:53;98499.78;;;0.64;90.03
65557;BME280;52200;53.490;14.376;2024-01-15T04:30:18;98488.69;;;0.76;89.28
65557;BME280;52200;53.490;14.376;2024-01-15T04:32:43;98492.06;;;0.75;89.34
65557;BME280;52200;53.490;14.376;2024-01-15T04:35:09;98483.72;;;0.76;89.28
65557;BME280;52200;53.490;14.376;2024-01-15T04:37:34;98477.06;;;0.75;89.23
65557;BME280;52200;53.490;14.376;2024-01-15T04:40:00;98485.34;;;0.77;89.54
65557;BME280;52200;53.490;14.376;2024-01-15T04:42:25;98486.44;;;0.65;89.83
65557;BME280;52200;53.490;14.376;2024-01-15T04:44:51;98488.84;;;0.70;89.44
65557;BME280;52200;53.490;14.376;2024-01-15T04:47:17;98478.91;;;0.67;89.96
65557;BME280;52200;53.490;14.376;2024-01-15T04:49:42;98479.75;;;0.67;90.29
65557;BME280;52200;53.490;14.376;2024-01-15T04:52:08;98465.50;;;0.71;89.94
65557;BME280;52200;53.490;14.376;2024-01-15T04:54:35;98474.84;;;0.62;89.57
65557;BME280;52200;53.490;14.376;2024-01-15T04:57:01;98471.78;;;0.51;89.48
65557;BME280;52200;53.490;14.376;2024-01-15T04:59:27;98473.47;;;0.49;89.53
65557;BME280;52200;53.490;14.376;2024-01-15T05:01:53;98470.03;;;0.55;89.65
65557;BME280;52200;53.490;14.376;2024-01-15T05:04:18;98474.94;;;0.58;88.96
65557;BME280;52200;53.490;14.376;2024-01-15T05:06:44;98473.06;;;0.68;88.26
65557;BME280;52200;53.490;14.376;2024-01-15T05:09:09;98467.31;;;0.64;88.08
65557;BME280;52200;53.490;14.376;2024-01-15T05:11:34;98474.13;;;0.57;86.87
65557;BME280;52200;53.490;14.376;2024-01-15T05:14:00;98473.34;;;0.55;86.34
65557;BME280;52200;53.490;14.376;2024-01-15T05:16:25;98479.41;;;0.45;87.14
65557;BME280;52200;53.490;14.376;2024-01-15T05:18:51;98478.66;;;0.41;86.54
65557;BME280;52200;53.490;14.376;2024-01-15T05:21:16;98467.81;;;0.41;85.56
65557;BME280;52200;53.490;14.376;2024-01-15T05:23:42;98461.34;;;0.34;86.37
65557;BME280;52200;53.490;14.376;2024-01-15T05:26:07;98470.41;;;0.38;85.52
65557;BME280;52200;53.490;14.376;2024-01-15T05:28:34;98462.69;;;0.47;84.42
65557;BME280;52200;53.490;14.376;2024-01-15T05:30:59;98460.78;;;0.58;83.99
65557;BME280;52200;53.490;14.376;2024-01-15T05:33:25;98463.22;;;0.61;84.26
65557;BME280;52200;53.490;14.376;2024-01-15T05:35:51;98463.16;;;0.63;83.63
65557;BME280;52200;53.490;14.376;2024-01-15T05:38:17;98454.91;;;0.59;84.27
65557;BME280;52200;53.490;14.376;2024-01-15T05:40:42;98456.72;;;0.54;83.37
65557;BME280;52200;53.490;14.376;2024-01-15T05:43:08;98454.22;;;0.54;83.39
65557;BME280;52200;53.490;14.376;2024-01-15T05:45:34;98457.50;;;0.56;83.04
65557;BME280;52200;53.490;14.376;2024-01-15T05:48:00;98441.59;;;0.60;82.53
65557;BME280;52200;53.490;14.376;2024-01-15T05:50:26;98445.00;;;0.56;82.70
65557;BME280;52200;53.490;14.376;2024-01-15T05:52:51;98445.88;;;0.55;82.49
65557;BME280;52200;53.490;14.376;2024-01-15T05:55:17;98449.03;;;0.63;81.79
65557;BME280;52200;53.490;14.376;2024-01-15T05:57:44;98445.69;;;0.63;81.83
65557;BME280;52200;53.490;14.376;2024-01-15T06:00:10;98451.28;;;0.73;82.14
65557;BME280;52200;53.490;14.376;2024-01-15T06:02:37;98450.28;;;0.80;81.83
65557;BME280;52200;53.490;14.376;2024-01-15T06:05:03;98446.69;;;0.90;81.37
65557;BME280;52200;53.490;14.376;2024-01-15T06:07:28;98443.78;;;1.07;81.38
65557;BME280;52200;53.490;14.376;2024-01-15T06:09:53;98447.97;;;1.07;81.16
65557;BME280;52200;53.490;14.376;2024-01-15T06:12:19;98444.63;;;1.08;81.43
65557;BME280;52200;53.490;14.376;2024-01-15T06:14:44;98447.06;;;1.09;81.78
65557;BME280;52200;53.490;14.376;2024-01-15T06:17:10;98451.53;;;0.96;82.13
65557;BME280;52200;53.490;14.376;2024-01-15T06:19:36;98453.44;;;0.88;83.60
65557;BME280;52200;53.490;14.376;2024-01-15T06:22:01;98427.44;;;0.94;84.05
65557;BME280;52200;53.490;14.376;2024-01-15T06:24:27;98445.81;;;0.93;85.32
65557;BME280;52200;53.490;14.376;2024-01-15T06:26:52;98438.66;;;0.79;85.76
65557;BME280;52200;53.490;14.376;2024-01-15T06:29:18;98439.50;;;0.78;87.11
65557;BME280;52200;53.490;14.376;2024-01-15T06:31:43;98442.13;;;0.72;88.85
65557;BME280;52200;53.490;14.376;2024-01-15T06:34:09;98431.63;;;0.59;91.20
65557;BME280;52200;53.490;14.376;2024-01-15T06:36:34;98451.81;;;0.51;92.00
65557;BME280;52200;53.490;14.376;2024-01-15T06:39:00;98470.19;;;0.47;92.00
65557;BME280;52200;53.490;14.376;2024-01-15T06:41:25;98460.59;;;0.28;94.18
65557;BME280;52200;53.490;14.376;2024-01-15T06:43:51;98466.16;;;0.02;92.86
65557;BME280;52200;53.490;14.376;2024-01-15T06:46:20;98471.19;;;0.01;92.97
65557;BME280;52200;53.490;14.376;2024-01-15T06:48:46;98472.97;;;-0.05;91.46
65557;BME280;52200;53.490;14.376;2024-01-15T06:51:12;98480.50;;;-0.08;90.09
65557;BME280;52200;53.490;14.376;2024-01-15T06:53:37;98481.22;;;-0.03;89.95
65557;BME280;52200;53.490;14.376;2024-01-15T06:56:03;98482.09;;;-0.05;88.69
65557;BME280;52200;53.490;14.376;2024-01-15T06:58:28;98485.34;;;-0.02;87.74
65557;BME280;52200;53.490;14.376;2024-01-15T07:00:56;98481.88;;;0.06;87.91
65557;BME280;52200;53.490;14.376;2024-01-15T07:03:21;98480.19;;;0.08;87.19
65557;BME280;52200;53.490;14.376;2024-01-15T07:05:46;98481.84;;;0.09;86.82
65557;BME280;52200;53.490;14.376;2024-01-15T07:08:12;98492.66;;;0.08;86.72
65557;BME280;52200;53.490;14.376;2024-01-15T07:10:37;98496.78;;;0.10;86.16
65557;BME280;52200;53.490;14.376;2024-01-15T07:13:03;98495.75;;;0.19;86.70
65557;BME280;52200;53.490;14.376;2024-01-15T07:15:30;98494.78;;;0.26;85.99
65557;BME280;52200;53.490;14.376;2024-01-15T07:17:56;98498.81;;;0.34;85.59
65557;BME280;52200;53.490;14.376;2024-01-15T07:20:21;98511.28;;;0.34;86.21
65557;BME280;52200;53.490;14.376;2024-01-15T07:22:47;98501.56;;;0.21;87.88
65557;BME280;52200;53.490;14.376;2024-01-15T07:25:12;98502.16;;;0.32;88.15
65557;BME280;52200;53.490;14.376;2024-01-15T07:27:38;98514.63;;;0.32;87.25
65557;BME280;52200;53.490;14.376;2024-01-15T07:30:04;98509.38;;;0.45;86.94
65557;BME280;52200;53.490;14.376;2024-01-15T07:32:31;98511.88;;;0.45;86.54
65557;BME280;52200;53.490;14.376;2024-01-15T07:34:57;98500.84;;;0.54;86.44
65557;BME280;52200;53.490;14.376;2024-01-15T07:37:24;98505.75;;;0.58;85.54
65557;BME280;52200;53.490;14.376;2024-01-15T07:39:50;98515.63;;;0.64;84.09
65557;BME280;52200;53.490;14.376;2024-01-15T07:42:16;98504.72;;;0.67;84.12
65557;BME280;52200;53.490;14.376;2024-01-15T07:44:41;98512.91;;;0.74;84.26
65557;BME280;52200;53.490;14.376;2024-01-15T07:47:06;98512.19;;;0.69;83.82
65557;BME280;52200;53.490;14.376;2024-01-15T07:49:33;98513.75;;;0.73;83.44
65557;BME280;52200;53.490;14.376;2024-01-15T07:51:59;98512.78;;;0.78;83.62
65557;BME280;52200;53.490;14.376;2024-01-15T07:54:25;98521.09;;;0.79;83.18
65557;BME280;52200;53.490;14.376;2024-01-15T07:57:00;98521.91;;;0.81;83.40
65557;BME280;52200;53.490;14.376;2024-01-15T07:59:26;98521.91;;;0.81;83.16
65557;BME280;52200;53.490;14.376;2024-01-15T08:01:53;98527.56;;;0.89;83.94
65557;BME280;52200;53.490;14.376;2024-01-15T08:04:19;98526.75;;;0.87;83.80
65557;BME280;52200;53.490;14.376;2024-01-15T08:06:45;98544.47;;;0.76;85.44
65557;BME280;52200;53.490;14.376;2024-01-15T08:09:10;98544.56;;;0.73;86.29
65557;BME280;52200;53.490;14.376;2024-01-15T08:11:38;98548.84;;;0.67;87.80
65557;BME280;52200;53.490;14.376;2024-01-15T08:14:04;98552.00;;;0.36;90.45
65557;BME280;52200;53.490;14.376;2024-01-15T08:16:29;98549.84;;;0.20;92.47
65557;BME280;52200;53.490;14.376;2024-01-15T08:18:55;98546.50;;;0.20;93.24
65557;BME280;52200;53.490;14.376;2024-01-15T08:21:21;98549.66;;;0.28;93.01
65557;BME280;52200;53.490;14.376;2024-01-15T08:23:47;98555.47;;;0.28;93.14
65557;BME280;52200;53.490;14.376;2024-01-15T08:26:13;98548.66;;;0.37;93.08
65557;BME280;52200;53.490;14.376;2024-01-15T08:28:38;98547.72;;;0.41;93.34
65557;BME280;52200;53.490;14.376;2024-01-15T08:31:03;98543.53;;;0.43;92.18
65557;BME280;52200;53.490;14.376;2024-01-15T08:33:29;98534.22;;;0.51;92.72
65557;BME280;52200;53.490;14.376;2024-01-15T08:35:54;98535.72;;;0.58;92.08
65557;BME280;52200;53.490;14.376;2024-01-15T08:38:20;98538.09;;;0.64;91.14
65557;BME280;52200;53.490;14.376;2024-01-15T08:40:46;98538.19;;;0.60;90.00
65557;BME280;52200;53.490;14.376;2024-01-15T08:43:12;98530.53;;;0.68;89.44
65557;BME280;52200;53.490;14.376;2024-01-15T08:45:38;98526.94;;;0.78;88.18
65557;BME280;52200;53.490;14.376;2024-01-15T08:48:03;98551.03;;;0.82;86.74
65557;BME280;52200;53.490;14.376;2024-01-15T08:50:29;98514.31;;;0.86;84.72
65557;BME280;52200;53.490;14.376;2024-01-15T08:52:55;98549.97;;;0.92;82.60
65557;BME280;52200;53.490;14.376;2024-01-15T08:55:21;98552.38;;;0.97;79.67
65557;BME280;52200;53.490;14.376;2024-01-15T08:57:48;98561.47;;;1.00;76.14
65557;BME280;52200;53.490;14.376;2024-01-15T09:00:14;98564.75;;;1.02;74.08
65557;BME280;52200;53.490;14.376;2024-01-15T09:02:39;98562.97;;;1.07;72.43
65557;BME280;52200;53.490;14.376;2024-01-15T09:05:05;98561.88;;;1.17;72.42
65557;BME280;52200;53.490;14.376;2024-01-15T09:07:31;98572.00;;;1.12;71.01
65557;BME280;52200;53.490;14.376;2024-01-15T09:09:57;98593.59;;;1.15;69.39
65557;BME280;52200;53.490;14.376;2024-01-15T09:12:24;98592.78;;;1.15;68.31
65557;BME280;52200;53.490;14.376;2024-01-15T09:14:50;98598.63;;;1.13;68.32
65557;BME280;52200;53.490;14.376;2024-01-15T09:17:15;98595.38;;;1.11;68.32
65557;BME280;52200;53.490;14.376;2024-01-15T09:19:41;98607.03;;;1.11;67.84
65557;BME280;52200;53.490;14.376;2024-01-15T09:22:07;98599.47;;;1.14;69.14
65557;BME280;52200;53.490;14.376;2024-01-15T09:24:32;98611.19;;;1.12;68.88
65557;BME280;52200;53.490;14.376;2024-01-15T09:26:58;98612.00;;;1.12;68.40
65557;BME280;52200;53.490;14.376;2024-01-15T09:29:23;98610.16;;;1.21;68.11
65557;BME280;52200;53.490;14.376;2024-01-15T09:31:49;98606.78;;;1.22;68.96
65557;BME280;52200;53.490;14.376;2024-01-15T09:34:15;98610.34;;;1.13;68.09
65557;BME280;52200;53.490;14.376;2024-01-15T09:36:41;98620.91;;;1.24;68.75
65557;BME280;52200;53.490;14.376;2024-01-15T09:39:08;98624.25;;;1.23;69.33
65557;BME280;52200;53.490;14.376;2024-01-15T09:41:37;98617.59;;;1.22;68.34
65557;BME280;52200;53.490;14.376;2024-01-15T09:44:04;98626.63;;;1.29;69.64
65557;BME280;52200;53.490;14.376;2024-01-15T09:46:31;98627.59;;;1.22;68.84
65557;BME280;52200;53.490;14.376;2024-01-15T09:48:57;98639.41;;;1.17;69.64
65557;BME280;52200;53.490;14.376;2024-01-15T09:51:24;98629.34;;;1.20;70.26
65557;BME280;52200;53.490;14.376;2024-01-15T09:53:50;98624.50;;;1.12;70.94
65557;BME280;52200;53.490;14.376;2024-01-15T09:56:16;98636.25;;;1.09;70.72
65557;BME280;52200;53.490;14.376;2024-01-15T09:58:41;98628.03;;;1.04;71.46
65557;BME280;52200;53.490;14.376;2024-01-15T10:01:08;98628.16;;;0.98;71.57
65557;BME280;52200;53.490;14.376;2024-01-15T10:03:34;98633.06;;;1.02;72.32
65557;BME280;52200;53.490;14.376;2024-01-15T10:05:59;98636.38;;;1.04;72.86
65557;BME280;52200;53.490;14.376;2024-01-15T10:08:25;98642.88;;;1.11;72.24
65557;BME280;52200;53.490;14.376;2024-01-15T10:10:51;98633.91;;;1.01;72.90
65557;BME280;52200;53.490;14.376;2024-01-15T10:13:17;98631.47;;;1.00;72.23
65557;BME280;52200;53.490;14.376;2024-01-15T10:15:45;98642.53;;;0.88;73.02
65557;BME280;52200;53.490;14.376;2024-01-15T10:18:12;98629.38;;;0.79;72.39
65557;BME280;52200;53.490;14.376;2024-01-15T10:20:39;98624.19;;;0.89;72.45
65557;BME280;52200;53.490;14.376;2024-01-15T10:23:05;98647.38;;;0.95;71.76
65557;BME280;52200;53.490;14.376;2024-01-15T10:25:30;98641.13;;;0.76;72.82
65557;BME280;52200;53.490;14.376;2024-01-15T10:28:03;98636.09;;;0.77;73.01
65557;BME280;52200;53.490;14.376;2024-01-15T10:30:30;98647.09;;;0.69;72.72
65557;BME280;52200;53.490;14.376;2024-01-15T10:33:03;98640.41;;;0.71;72.50
65557;BME280;52200;53.490;14.376;2024-01-15T10:35:34;98638.63;;;0.76;72.43
65557;BME280;52200;53.490;14.376;2024-01-15T10:38:00;98644.22;;;0.87;72.44
65557;BME280;52200;53.490;14.376;2024-01-15T10:40:27;98645.78;;;0.93;72.16
65557;BME280;52200;53.490;14.376;2024-01-15T10:42:52;98644.13;;;0.92;71.50
65557;BME280;52200;53.490;14.376;2024-01-15T10:45:18;98639.13;;;0.92;72.32
65557;BME280;52200;53.490;14.376;2024-01-15T10:47:44;98644.09;;;0.93;72.20
65557;BME280;52200;53.490;14.376;2024-01-15T10:50:11;98640.66;;;0.98;72.21
65557;BME280;52200;53.490;14.376;2024-01-15T10:52:38;98644.25;;;0.84;71.54
65557;BME280;52200;53.490;14.376;2024-01-15T10:55:06;98649.63;;;0.66;72.39
65557;BME280;52200;53.490;14.376;2024-01-15T10:57:34;98657.09;;;0.69;73.42
65557;BME280;52200;53.490;14.376;2024-01-15T11:00:01;98661.44;;;0.59;73.74
65557;BME280;52200;53.490;14.376;2024-01-15T11:02:29;98647.31;;;0.58;75.00
65557;BME280;52200;53.490;14.376;2024-01-15T11:04:55;98642.31;;;0.58;75.14
65557;BME280;52200;53.490;14.376;2024-01-15T11:07:22;98654.56;;;0.70;75.04
65557;BME280;52200;53.490;14.376;2024-01-15T11:09:50;98653.22;;;0.54;75.47
65557;BME280;52200;53.490;14.376;2024-01-15T11:12:16;98665.66;;;0.55;75.26
65557;BME280;52200;53.490;14.376;2024-01-15T11:14:49;98663.00;;;0.64;75.41
65557;BME280;52200;53.490;14.376;2024-01-15T11:17:16;98658.50;;;0.82;75.61
65557;BME280;52200;53.490;14.376;2024-01-15T11:24:56;98670.00;;;0.45;76.30
65557;BME280;52200;53.490;14.376;2024-01-15T11:27:49;98672.66;;;0.38;76.16
65557;BME280;52200;53.490;14.376;2024-01-15T11:30:19;98666.22;;;0.27;76.21
65557;BME280;52200;53.490;14.376;2024-01-15T11:32:45;98669.44;;;0.32;76.31
65557;BME280;52200;53.490;14.376;2024-01-15T11:35:12;98679.97;;;0.48;75.84
65557;BME280;52200;53.490;14.376;2024-01-15T11:40:36;98669.78;;;0.58;74.10
65557;BME280;52200;53.490;14.376;2024-01-15T11:43:03;98670.00;;;0.89;74.37
65557;BME280;52200;53.490;14.376;2024-01-15T11:45:30;98670.06;;;0.86;73.36
65557;BME280;52200;53.490;14.376;2024-01-15T11:50:24;98670.66;;;0.55;73.00
65557;BME280;52200;53.490;14.376;2024-01-15T11:53:03;98670.66;;;0.55;73.84
65557;BME280;52200;53.490;14.376;2024-01-15T11:55:35;98680.34;;;0.72;73.73
65557;BME280;52200;53.490;14.376;2024-01-15T11:58:02;98696.88;;;0.78;72.55
65557;BME280;52200;53.490;14.376;2024-01-15T12:00:43;98697.75;;;0.75;73.42
65557;BME280;52200;53.490;14.376;2024-01-15T12:03:09;98700.84;;;0.88;73.57
65557;BME280;52200;53.490;14.376;2024-01-15T12:05:37;98710.59;;;0.58;72.12
65557;BME280;52200;53.490;14.376;2024-01-15T12:08:02;98726.03;;;0.34;71.76
65557;BME280;52200;53.490;14.376;2024-01-15T12:10:28;98716.28;;;0.18;71.89
65557;BME280;52200;53.490;14.376;2024-01-15T12:13:05;98721.25;;;0.21;71.78
65557;BME280;52200;53.490;14.376;2024-01-15T12:15:32;98734.91;;;-0.02;71.80
65557;BME280;52200;53.490;14.376;2024-01-15T12:18:02;98735.03;;;-0.09;71.93
65557;BME280;52200;53.490;14.376;2024-01-15T12:20:29;98741.81;;;-0.16;71.05
65557;BME280;52200;53.490;14.376;2024-01-15T12:22:55;98751.78;;;-0.16;71.67
65557;BME280;52200;53.490;14.376;2024-01-15T12:25:22;98758.34;;;-0.10;71.03
65557;BME280;52200;53.490;14.376;2024-01-15T12:27:48;98758.97;;;0.04;70.98
65557;BME280;52200;53.490;14.376;2024-01-15T12:30:14;98753.38;;;-0.12;71.53
65557;BME280;52200;53.490;14.376;2024-01-15T12:32:40;98767.38;;;-0.03;69.77
65557;BME280;52200;53.490;14.376;2024-01-15T12:35:07;98780.16;;;-0.25;69.47
65557;BME280;52200;53.490;14.376;2024-01-15T12:37:35;98772.53;;;-0.14;69.09
65557;BME280;52200;53.490;14.376;2024-01-15T12:40:01;98778.34;;;-0.15;69.85
65557;BME280;52200;53.490;14.376;2024-01-15T12:42:28;98786.75;;;-0.19;68.48
65557;BME280;52200;53.490;14.376;2024-01-15T12:44:56;98817.50;;;-0.19;67.86
65557;BME280;52200;53.490;14.376;2024-01-15T12:47:21;98784.34;;;-0.25;67.99
65557;BME280;52200;53.490;14.376;2024-01-15T12:49:47;98771.88;;;-0.25;67.74
65557;BME280;52200;53.490;14.376;2024-01-15T12:52:19;98780.06;;;-0.17;67.09
65557;BME280;52200;53.490;14.376;2024-01-15T12:54:47;98783.34;;;-0.15;67.73
65557;BME280;52200;53.490;14.376;2024-01-15T12:57:12;98787.47;;;-0.11;68.41
65557;BME280;52200;53.490;14.376;2024-01-15T12:59:38;98790.69;;;-0.04;67.76
65557;BME280;52200;53.490;14.376;2024-01-15T13:02:03;98790.94;;;-0.21;67.52